Time;durP1;ratioP1;P1;durP2;ratioP2;P2;SDS_P1;SDS_P2;PMS_P1;PMS_P2;Temp;Humidity;BMP_temperature;BMP_pressure;BME280_temperature;BME280_humidity;BME280_pressure;Samples;Min_cycle;Max_cycle;Signal;HPM_P1;HPM_P2
2021/07/29 00:00:22;;;;;;;;;12.00;12.00;;;;;27.09;55.04;98429.88;6230445;27;97154;-62
2021/07/29 00:03:26;;;;;;;;;13.00;12.00;;;;;27.15;54.98;98427.69;6222439;28;97394;-61
2021/07/29 00:06:30;;;;;;;;;13.00;12.40;;;;;27.09;54.88;98432.63;6232464;28;98015;-61
2021/07/29 00:09:33;;;;;;;;;13.00;12.80;;;;;27.08;55.09;98417.16;6232418;28;96632;-62
2021/07/29 00:12:36;;;;;;;;;12.50;12.00;;;;;27.14;54.91;98424.13;6236159;28;96676;-61
2021/07/29 00:15:41;;;;;;;;;14.00;12.00;;;;;27.22;54.80;98418.84;6235861;28;97037;-61
2021/07/29 00:22:07;;;;;;;;;15.00;13.00;;;;;27.20;54.68;98415.59;6196945;27;96621;-62
2021/07/29 00:25:13;;;;;;;;;14.00;13.00;;;;;27.17;54.98;98411.56;6228549;28;97456;-62
2021/07/29 00:28:16;;;;;;;;;15.00;13.60;;;;;27.18;55.05;98410.41;6229819;27;97434;-62
2021/07/29 00:31:24;;;;;;;;;14.00;13.00;;;;;27.19;55.43;98420.31;6230286;28;96614;-61
2021/07/29 00:34:27;;;;;;;;;14.40;13.40;;;;;27.15;55.35;98422.97;6218281;28;96791;-61
2021/07/29 00:37:30;;;;;;;;;15.00;14.00;;;;;27.28;54.76;98428.53;6234681;28;97770;-61
2021/07/29 00:40:35;;;;;;;;;16.00;15.00;;;;;27.31;54.88;98422.31;6201848;28;96729;-61
2021/07/29 00:43:38;;;;;;;;;16.00;15.00;;;;;27.26;54.89;98425.31;6237138;27;96632;-62
2021/07/29 00:46:43;;;;;;;;;14.80;13.80;;;;;27.23;55.11;98432.31;6223278;27;96685;-62
2021/07/29 00:49:48;;;;;;;;;18.75;16.75;;;;;27.19;55.25;98433.34;6227171;28;97468;-62
2021/07/29 00:52:52;;;;;;;;;14.40;13.00;;;;;27.21;55.24;98434.63;6251562;27;97259;-62
2021/07/29 00:55:56;;;;;;;;;16.00;15.00;;;;;27.20;55.35;98440.50;6222756;28;97385;-62
2021/07/29 00:58:59;;;;;;;;;18.00;15.00;;;;;27.23;55.59;98451.69;6236565;27;97042;-62
2021/07/29 01:02:04;;;;;;;;;18.00;16.00;;;;;27.28;55.62;98440.41;6231614;27;97992;-62
2021/07/29 01:05:10;;;;;;;;;14.80;13.80;;;;;27.27;55.37;98436.00;6232544;27;97440;-62
2021/07/29 01:08:13;;;;;;;;;14.20;14.20;;;;;27.25;55.46;98446.63;6231111;28;96643;-62
2021/07/29 01:11:16;;;;;;;;;15.33;15.00;;;;;27.17;55.55;98444.78;6227007;27;97605;-62
2021/07/29 01:14:20;;;;;;;;;15.00;14.00;;;;;27.16;55.19;98434.84;6228713;28;96626;-62
2021/07/29 01:17:25;;;;;;;;;16.50;16.00;;;;;27.09;55.57;98434.59;6236670;28;96574;-62
2021/07/29 01:20:31;;;;;;;;;16.00;15.00;;;;;27.07;56.04;98429.38;6221194;27;96815;-62
2021/07/29 01:23:35;;;;;;;;;19.60;17.60;;;;;27.09;56.12;98435.41;6231275;28;97477;-62
2021/07/29 01:26:38;;;;;;;;;17.50;17.00;;;;;27.06;56.27;98433.31;6233173;28;97418;-62
2021/07/29 01:29:46;;;;;;;;;18.20;17.80;;;;;27.07;56.51;98428.59;6226887;27;97400;-61
2021/07/29 01:32:50;;;;;;;;;19.00;17.40;;;;;27.04;56.36;98432.03;6235876;27;97517;-62
2021/07/29 01:35:54;;;;;;;;;18.20;17.00;;;;;26.99;56.81;98421.19;6230148;27;96579;-61
2021/07/29 01:38:58;;;;;;;;;19.00;18.00;;;;;26.99;56.76;98432.25;6234361;28;97189;-61
2021/07/29 01:42:04;;;;;;;;;20.00;19.00;;;;;26.92;57.03;98432.00;6221500;28;97528;-62
2021/07/29 01:45:08;;;;;;;;;21.40;20.80;;;;;26.90;57.41;98428.75;6238695;27;96718;-62
2021/07/29 01:48:11;;;;;;;;;21.00;20.00;;;;;26.92;57.27;98432.81;6235051;27;97544;-62
2021/07/29 01:51:16;;;;;;;;;22.20;20.00;;;;;26.92;57.30;98437.53;6236990;27;97468;-62
2021/07/29 01:54:19;;;;;;;;;22.25;20.50;;;;;26.82;57.35;98438.72;6238441;28;97417;-63
2021/07/29 01:57:23;;;;;;;;;21.25;19.25;;;;;26.76;57.77;98442.03;6239992;27;98397;-63
2021/07/29 02:00:27;;;;;;;;;22.25;21.00;;;;;26.78;57.79;98439.75;6229741;28;97475;-62
2021/07/29 02:03:30;;;;;;;;;23.00;20.00;;;;;26.78;58.06;98446.06;6229655;28;96773;-63
2021/07/29 02:06:37;;;;;;;;;22.20;19.20;;;;;26.81;58.06;98450.94;6227144;28;97485;-63
2021/07/29 02:09:41;;;;;;;;;23.00;21.00;;;;;26.83;57.94;98450.59;6239921;28;97652;-62
2021/07/29 02:12:44;;;;;;;;;21.50;19.25;;;;;26.84;57.82;98460.50;6240893;28;97221;-63
2021/07/29 02:15:48;;;;;;;;;23.00;21.00;;;;;26.85;57.71;98456.59;6235619;27;96769;-63
2021/07/29 02:18:51;;;;;;;;;20.40;20.00;;;;;26.77;57.11;98460.25;6237689;28;97479;-62
2021/07/29 02:21:56;;;;;;;;;24.00;22.00;;;;;26.72;57.46;98462.09;6230943;28;97430;-64
2021/07/29 02:24:59;;;;;;;;;19.50;18.50;;;;;26.68;57.38;98471.38;6222574;28;96763;-62
2021/07/29 02:28:02;;;;;;;;;21.00;18.40;;;;;26.69;57.48;98479.31;6218755;28;96986;-63
2021/07/29 02:31:06;;;;;;;;;18.80;17.00;;;;;26.76;57.19;98464.97;6225953;27;96635;-62
2021/07/29 02:34:11;;;;;;;;;21.33;19.00;;;;;26.73;56.48;98466.44;6226379;27;97142;-62
2021/07/29 02:37:16;;;;;;;;;19.00;18.00;;;;;26.72;56.45;98455.75;6237388;28;97358;-62
2021/07/29 02:40:19;;;;;;;;;20.60;20.20;;;;;26.74;56.54;98459.75;6222334;28;97312;-62
2021/07/29 02:43:23;;;;;;;;;22.00;20.00;;;;;26.73;56.55;98457.38;6238533;27;97157;-62
2021/07/29 02:46:26;;;;;;;;;21.00;19.40;;;;;26.73;56.74;98457.38;6234008;27;97414;-62
2021/07/29 02:49:30;;;;;;;;;20.40;19.80;;;;;26.75;56.78;98455.06;6225383;27;97378;-62
2021/07/29 02:52:34;;;;;;;;;21.00;20.50;;;;;26.72;56.66;98437.19;6230781;28;97052;-62
2021/07/29 02:55:38;;;;;;;;;20.00;18.60;;;;;26.76;56.64;98445.63;6234737;28;96618;-62
2021/07/29 02:58:41;;;;;;;;;19.80;18.60;;;;;26.80;56.69;98437.44;6236912;28;97148;-62
2021/07/29 03:01:45;;;;;;;;;22.00;21.00;;;;;26.83;56.41;98442.31;6237239;28;97468;-63
2021/07/29 03:04:48;;;;;;;;;20.00;19.00;;;;;26.84;56.90;98443.91;6235162;28;97374;-62
2021/07/29 03:07:53;;;;;;;;;23.80;21.00;;;;;26.87;56.48;98443.28;6217338;28;96441;-62
2021/07/29 03:10:58;;;;;;;;;22.60;21.60;;;;;26.87;56.39;98446.03;6220520;28;96682;-62
2021/07/29 03:14:01;;;;;;;;;22.00;20.40;;;;;26.88;56.58;98445.69;6226171;28;96551;-63
2021/07/29 03:17:05;;;;;;;;;24.60;20.20;;;;;26.87;56.68;98440.50;6228642;27;97412;-62
2021/07/29 03:20:09;;;;;;;;;23.20;20.00;;;;;26.82;56.71;98446.22;6235664;28;97767;-62
2021/07/29 03:23:14;;;;;;;;;17.75;16.00;;;;;26.86;55.92;98448.00;6227698;27;97163;-62
2021/07/29 03:26:20;;;;;;;;;21.50;20.00;;;;;26.84;55.80;98454.97;6227406;28;96814;-62
2021/07/29 03:29:27;;;;;;;;;20.00;19.00;;;;;26.88;55.75;98465.03;6224808;27;96549;-62
2021/07/29 03:32:30;;;;;;;;;21.00;21.00;;;;;26.89;55.86;98463.91;6239932;27;96879;-62
2021/07/29 03:35:38;;;;;;;;;18.00;17.25;;;;;26.87;55.63;98468.97;6224238;28;97481;-63
2021/07/29 03:38:42;;;;;;;;;20.00;19.00;;;;;26.86;55.30;98463.75;6234334;28;97112;-62
2021/07/29 03:41:46;;;;;;;;;19.00;17.00;;;;;26.80;55.11;98473.41;6234682;28;97739;-62
2021/07/29 03:44:49;;;;;;;;;18.00;18.00;;;;;26.79;54.34;98461.50;6235488;27;96473;-63
2021/07/29 03:47:54;;;;;;;;;17.25;17.00;;;;;26.82;54.32;98471.09;6237189;27;96961;-62
2021/07/29 03:50:57;;;;;;;;;15.50;15.00;;;;;26.80;53.93;98465.91;6230082;27;97574;-62
2021/07/29 03:54:02;;;;;;;;;16.00;14.60;;;;;26.77;53.85;98474.06;6226476;28;96854;-62
2021/07/29 03:57:06;;;;;;;;;19.00;17.00;;;;;26.78;53.97;98470.19;6236373;27;97522;-62
2021/07/29 04:00:10;;;;;;;;;20.00;18.00;;;;;26.79;54.76;98477.31;6233723;28;97410;-63
2021/07/29 04:03:13;;;;;;;;;18.00;17.60;;;;;26.81;55.40;98480.53;6227501;27;97184;-63
2021/07/29 04:06:18;;;;;;;;;23.00;21.60;;;;;26.79;55.59;98486.41;6224063;27;97410;-62
2021/07/29 04:09:22;;;;;;;;;20.20;19.20;;;;;26.76;55.60;98483.50;6228091;27;96843;-61
2021/07/29 04:12:25;;;;;;;;;22.00;21.00;;;;;26.79;56.02;98499.44;6228178;28;97224;-62
2021/07/29 04:15:29;;;;;;;;;22.00;20.00;;;;;26.72;55.91;98492.50;6235015;28;96985;-62
2021/07/29 04:18:32;;;;;;;;;21.00;19.00;;;;;26.74;55.68;98494.91;6231834;27;97405;-62
2021/07/29 04:21:36;;;;;;;;;22.00;20.00;;;;;26.65;55.84;98494.97;6230099;28;96598;-62
2021/07/29 04:24:41;;;;;;;;;22.60;20.60;;;;;26.65;55.76;98497.75;6233016;28;97366;-62
2021/07/29 04:27:44;;;;;;;;;21.00;20.00;;;;;26.67;55.60;98503.75;6236858;27;96665;-62
2021/07/29 04:30:47;;;;;;;;;19.40;19.00;;;;;26.73;55.57;98496.06;6233862;27;97559;-62
2021/07/29 04:33:52;;;;;;;;;26.60;23.00;;;;;26.66;55.44;98496.59;6229069;27;96629;-62
2021/07/29 04:36:56;;;;;;;;;25.50;23.50;;;;;26.61;55.66;98510.63;6228223;28;97481;-62
2021/07/29 04:40:00;;;;;;;;;20.00;20.00;;;;;26.60;55.40;98506.25;6229640;28;98037;-62
2021/07/29 04:43:04;;;;;;;;;25.00;23.00;;;;;26.65;55.42;98508.81;6236462;27;97821;-62
2021/07/29 04:46:07;;;;;;;;;19.60;18.00;;;;;26.66;55.72;98521.50;6229659;28;97324;-62
2021/07/29 04:49:12;;;;;;;;;19.00;18.00;;;;;26.68;55.36;98516.41;6237575;27;98041;-62
2021/07/29 04:52:15;;;;;;;;;21.00;19.00;;;;;26.71;54.75;98515.75;6236951;27;96879;-62
2021/07/29 04:55:20;;;;;;;;;23.00;20.00;;;;;26.66;54.38;98513.19;6236270;27;97431;-62
2021/07/29 04:58:24;;;;;;;;;22.00;19.40;;;;;26.71;54.51;98512.19;6233813;28;97152;-62
2021/07/29 05:01:27;;;;;;;;;20.80;18.80;;;;;26.78;54.34;98515.22;6236784;27;97400;-63
2021/07/29 05:04:30;;;;;;;;;19.25;18.00;;;;;26.86;53.66;98519.06;6231054;28;96646;-63
2021/07/29 05:07:34;;;;;;;;;19.50;17.50;;;;;26.93;54.01;98520.16;6227462;27;96855;-63
2021/07/29 05:10:39;;;;;;;;;20.40;18.40;;;;;26.86;53.99;98525.44;6228825;27;96995;-62
2021/07/29 05:13:42;;;;;;;;;19.50;17.00;;;;;26.73;54.58;98527.28;6238479;28;98604;-62
2021/07/29 05:16:45;;;;;;;;;20.60;17.00;;;;;26.68;54.69;98524.72;6239405;28;97226;-63
2021/07/29 05:19:49;;;;;;;;;19.00;17.00;;;;;26.53;54.78;98528.09;6240855;27;96562;-62
2021/07/29 05:22:52;;;;;;;;;20.00;18.00;;;;;26.52;54.65;98534.75;6241295;28;96678;-62
2021/07/29 05:25:57;;;;;;;;;20.40;18.40;;;;;26.58;54.40;98527.91;6222711;28;97578;-62
2021/07/29 05:29:00;;;;;;;;;21.00;19.00;;;;;26.66;54.28;98520.69;6242629;27;96587;-62
2021/07/29 05:32:04;;;;;;;;;17.00;17.00;;;;;26.73;54.56;98527.28;6236850;27;96805;-63
2021/07/29 05:35:09;;;;;;;;;17.25;16.00;;;;;26.94;53.82;98534.81;6242460;28;98165;-62
2021/07/29 05:38:12;;;;;;;;;19.00;16.00;;;;;26.98;53.03;98528.25;6242096;27;96496;-62
2021/07/29 05:41:17;;;;;;;;;16.20;16.00;;;;;27.07;52.80;98536.50;6228884;27;97538;-62
2021/07/29 05:44:20;;;;;;;;;18.40;17.00;;;;;27.36;52.44;98530.06;6240984;27;96399;-62
2021/07/29 05:47:24;;;;;;;;;20.00;18.00;;;;;27.50;52.10;98530.59;6231602;28;97747;-62
2021/07/29 05:50:27;;;;;;;;;20.60;19.60;;;;;27.45;51.76;98528.84;6223871;28;96781;-62
2021/07/29 05:53:31;;;;;;;;;21.40;20.40;;;;;27.61;52.04;98534.56;6250862;27;96589;-62
2021/07/29 05:56:36;;;;;;;;;19.80;18.80;;;;;27.72;51.07;98530.19;6239349;28;96746;-62
2021/07/29 05:59:39;;;;;;;;;20.00;19.00;;;;;27.75;50.13;98534.25;6240598;28;97129;-62
2021/07/29 06:02:43;;;;;;;;;17.00;15.20;;;;;27.89;50.70;98530.00;6240852;28;96613;-62
2021/07/29 06:05:46;;;;;;;;;17.00;15.60;;;;;27.94;50.33;98534.50;6234135;27;96625;-63
2021/07/29 06:08:53;;;;;;;;;20.00;20.00;;;;;27.96;49.96;98537.72;6242399;27;96483;-62
2021/07/29 06:11:58;;;;;;;;;17.20;16.80;;;;;28.05;49.69;98541.22;6236975;28;98455;-62
2021/07/29 06:15:07;;;;;;;;;19.80;18.60;;;;;28.14;49.32;98541.16;6241976;27;97080;-62
2021/07/29 06:18:12;;;;;;;;;19.00;18.00;;;;;28.17;48.50;98546.78;6239907;27;96447;-62
2021/07/29 06:21:15;;;;;;;;;19.00;19.00;;;;;28.15;48.34;98545.53;6239891;27;97500;-63
2021/07/29 06:24:19;;;;;;;;;18.40;17.40;;;;;28.13;48.52;98551.41;6239579;28;97528;-63
2021/07/29 06:27:24;;;;;;;;;20.00;17.40;;;;;28.21;48.65;98549.69;6238694;27;97069;-62
2021/07/29 06:30:30;;;;;;;;;20.00;19.00;;;;;28.37;47.78;98550.63;6239145;27;96594;-62
2021/07/29 06:33:33;;;;;;;;;19.20;17.20;;;;;28.56;47.90;98552.78;6240394;27;97454;-62
2021/07/29 06:36:38;;;;;;;;;21.00;18.00;;;;;28.64;48.02;98557.41;6238787;28;97515;-62
2021/07/29 06:39:42;;;;;;;;;19.75;18.00;;;;;28.79;47.94;98565.84;6238711;27;96921;-61
2021/07/29 06:42:46;;;;;;;;;19.00;19.00;;;;;28.71;47.11;98569.59;6235828;27;97182;-61
2021/07/29 06:45:50;;;;;;;;;22.00;20.00;;;;;28.82;46.79;98572.69;6238316;27;96479;-62
2021/07/29 06:48:53;;;;;;;;;21.67;19.67;;;;;29.08;47.53;98569.50;6238782;27;97534;-62
2021/07/29 06:51:56;;;;;;;;;19.00;18.00;;;;;29.14;46.30;98574.47;6232393;28;96710;-62
2021/07/29 06:55:00;;;;;;;;;21.00;19.00;;;;;29.06;46.17;98572.63;6231250;27;97414;-62
2021/07/29 06:58:05;;;;;;;;;17.20;16.80;;;;;29.18;45.80;98575.38;6238036;27;98063;-62
2021/07/29 07:01:08;;;;;;;;;22.00;18.00;;;;;29.26;45.56;98557.78;6234708;27;96833;-62
2021/07/29 07:04:12;;;;;;;;;18.00;17.00;;;;;29.27;45.20;98567.69;6238585;27;98062;-62
2021/07/29 07:07:16;;;;;;;;;16.00;15.00;;;;;29.27;44.80;98564.91;6236529;28;98482;-62
2021/07/29 07:10:20;;;;;;;;;22.00;18.75;;;;;29.19;44.99;98565.88;6236712;28;97819;-62
2021/07/29 07:13:24;;;;;;;;;20.00;18.00;;;;;29.02;45.18;98576.47;6237770;27;97548;-62
2021/07/29 07:16:28;;;;;;;;;19.80;18.00;;;;;28.93;45.86;98573.81;6232100;28;98337;-61
2021/07/29 07:19:31;;;;;;;;;19.40;18.40;;;;;28.99;46.23;98577.16;6237723;27;96370;-62
2021/07/29 07:22:36;;;;;;;;;18.40;16.40;;;;;29.13;45.90;98536.75;6237754;27;97518;-62
2021/07/29 07:25:39;;;;;;;;;19.00;17.00;;;;;29.68;44.19;98568.47;6233609;28;99669;-62
2021/07/29 07:28:45;;;;;;;;;15.60;14.00;;;;;30.09;44.05;98570.84;6237563;27;97054;-62
2021/07/29 07:31:49;;;;;;;;;14.00;12.80;;;;;30.12;43.33;98567.31;6237671;28;96560;-62
2021/07/29 07:34:52;;;;;;;;;14.00;14.00;;;;;29.93;43.57;98575.56;6203467;28;96843;-62
2021/07/29 07:37:56;;;;;;;;;13.00;12.50;;;;;29.88;42.77;98573.00;6236944;28;97465;-62
2021/07/29 07:41:05;;;;;;;;;11.80;11.80;;;;;29.99;42.11;98571.34;6236458;28;97468;-62
2021/07/29 07:44:10;;;;;;;;;11.00;11.00;;;;;30.07;41.69;98555.66;6235860;28;97696;-62
2021/07/29 07:47:13;;;;;;;;;11.00;11.00;;;;;30.46;40.23;98576.94;6227892;28;97322;-62
2021/07/29 07:50:17;;;;;;;;;10.00;10.00;;;;;30.53;40.80;98577.13;6232455;28;96470;-61
2021/07/29 07:53:24;;;;;;;;;12.00;10.75;;;;;30.73;40.03;98572.44;6237527;27;96477;-61
2021/07/29 07:56:27;;;;;;;;;12.00;11.00;;;;;31.19;40.39;98564.31;6237611;27;97441;-62
2021/07/29 07:59:35;;;;;;;;;10.00;9.00;;;;;31.27;39.38;98566.91;6235532;28;97259;-62
2021/07/29 08:02:39;;;;;;;;;11.00;10.00;;;;;31.31;39.13;98569.75;6237997;27;97794;-62
2021/07/29 08:05:42;;;;;;;;;9.00;8.40;;;;;31.40;37.86;98573.13;6227519;28;96843;-61
2021/07/29 08:08:46;;;;;;;;;11.00;9.00;;;;;31.37;36.94;98571.06;6235869;28;97247;-62
2021/07/29 08:11:49;;;;;;;;;10.00;9.00;;;;;31.71;36.82;98567.41;6219287;28;96759;-62
2021/07/29 08:14:54;;;;;;;;;8.50;7.50;;;;;31.90;36.50;98563.78;6236661;27;98317;-62
2021/07/29 08:17:57;;;;;;;;;8.00;8.00;;;;;32.22;35.47;98570.75;6237508;28;96576;-62
2021/07/29 08:21:01;;;;;;;;;10.00;9.00;;;;;32.10;35.42;98564.53;6237146;27;97397;-62
2021/07/29 08:24:05;;;;;;;;;12.60;10.60;;;;;31.72;36.79;98565.41;6235687;27;96712;-62
2021/07/29 08:27:08;;;;;;;;;10.80;9.00;;;;;31.78;37.32;98550.81;6236202;27;97316;-62
2021/07/29 08:30:14;;;;;;;;;10.00;9.00;;;;;32.00;37.13;98557.59;6237038;27;96453;-62
2021/07/29 08:33:18;;;;;;;;;11.00;10.00;;;;;32.05;37.05;98562.06;6236947;28;97461;-61
2021/07/29 08:36:21;;;;;;;;;11.50;10.50;;;;;31.96;37.15;98562.28;6237264;27;97130;-62
2021/07/29 08:39:25;;;;;;;;;11.00;10.00;;;;;31.86;36.11;98548.97;6248463;27;96566;-62
2021/07/29 08:42:28;;;;;;;;;10.00;9.00;;;;;32.22;36.67;98556.81;6239598;28;96811;-62
2021/07/29 08:45:42;;;;;;;;;9.00;9.00;;;;;32.21;35.39;98563.56;6233460;27;97492;-61
2021/07/29 08:48:47;;;;;;;;;8.40;8.40;;;;;32.32;35.27;98555.38;6240470;28;97432;-62
2021/07/29 08:51:50;;;;;;;;;10.00;10.00;;;;;32.19;35.16;98562.34;6232284;27;97751;-63
2021/07/29 08:54:53;;;;;;;;;10.00;9.00;;;;;32.33;35.05;98568.16;6241793;27;97490;-62
2021/07/29 08:57:58;;;;;;;;;10.50;10.00;;;;;32.53;35.75;98561.31;6240861;28;96548;-61
2021/07/29 09:01:05;;;;;;;;;10.00;9.00;;;;;32.51;34.48;98562.84;6241262;27;96874;-61
2021/07/29 09:04:13;;;;;;;;;9.80;9.00;;;;;32.32;35.00;98566.53;6241302;28;96626;-61
2021/07/29 09:07:18;;;;;;;;;11.00;10.00;;;;;32.24;35.28;98560.03;6241350;27;97537;-62
2021/07/29 09:10:24;;;;;;;;;8.60;8.60;;;;;32.29;34.46;98555.31;6240485;27;96639;-61
2021/07/29 09:13:27;;;;;;;;;10.00;10.00;;;;;32.53;34.80;98563.28;6240250;27;96901;-62
2021/07/29 09:16:34;;;;;;;;;9.00;9.00;;;;;32.73;34.61;98559.25;6240923;27;96641;-61
2021/07/29 09:19:40;;;;;;;;;9.00;9.00;;;;;32.77;33.63;98562.09;6240691;27;96630;-63
2021/07/29 09:22:44;;;;;;;;;10.00;9.25;;;;;32.71;33.03;98556.00;6241221;27;96519;-60
2021/07/29 09:26:00;;;;;;;;;9.00;8.33;;;;;32.57;33.88;98551.00;6247881;27;97184;-61
2021/07/29 09:29:03;;;;;;;;;10.00;10.00;;;;;32.51;34.03;98546.91;6225588;28;97394;-62
2021/07/29 09:32:10;;;;;;;;;11.75;10.00;;;;;32.57;34.00;98545.41;6240240;27;97327;-62
2021/07/29 09:35:13;;;;;;;;;9.00;9.00;;;;;32.72;33.94;98545.66;6238202;28;97714;-61
2021/07/29 09:38:22;;;;;;;;;10.00;10.00;;;;;32.77;34.16;98536.97;6239292;27;97782;-61
2021/07/29 09:41:27;;;;;;;;;11.00;11.00;;;;;32.69;33.44;98541.66;6240673;28;97552;-61
2021/07/29 09:44:41;;;;;;;;;10.80;9.00;;;;;32.47;34.15;98537.69;6238173;28;97211;-62
2021/07/29 09:47:45;;;;;;;;;12.00;11.00;;;;;32.70;33.39;98540.44;6240078;27;97098;-62
2021/07/29 09:50:53;;;;;;;;;12.60;12.00;;;;;32.88;33.63;98530.34;6236737;28;98795;-62
2021/07/29 09:53:57;;;;;;;;;10.20;10.20;;;;;32.90;32.85;98536.34;6239304;28;97948;-61
2021/07/29 09:57:00;;;;;;;;;12.00;11.00;;;;;32.89;33.50;98540.31;6230601;28;96793;-61
2021/07/29 10:00:04;;;;;;;;;10.80;9.80;;;;;32.84;33.38;98537.84;6225839;28;98703;-61
2021/07/29 10:03:16;;;;;;;;;12.33;11.33;;;;;33.00;33.58;98538.47;6239856;28;97926;-61
2021/07/29 10:06:23;;;;;;;;;14.00;13.00;;;;;33.13;33.68;98539.06;6240089;27;97410;-62
2021/07/29 10:09:27;;;;;;;;;12.00;12.00;;;;;33.19;32.65;98531.97;6240059;27;96454;-61
2021/07/29 10:12:32;;;;;;;;;14.00;12.00;;;;;33.42;32.61;98527.09;6238837;27;97508;-62
2021/07/29 10:15:42;;;;;;;;;14.00;13.00;;;;;33.31;32.29;98528.94;6234095;28;96759;-61
2021/07/29 10:19:07;;;;;;;;;12.80;12.00;;;;;33.20;33.34;98528.00;6238849;28;97035;-62
2021/07/29 10:22:22;;;;;;;;;15.00;14.00;;;;;33.18;32.07;98530.38;6240197;27;96793;-61
2021/07/29 10:26:07;;;;;;;;;14.00;13.60;;;;;33.41;32.46;98521.88;6239136;27;97396;-61
2021/07/29 10:29:25;;;;;;;;;14.00;13.00;;;;;33.74;31.91;98512.66;6225169;28;96702;-62
2021/07/29 10:32:46;;;;;;;;;13.00;11.00;;;;;33.99;31.35;98515.69;6238270;27;97423;-61
2021/07/29 10:35:51;;;;;;;;;13.00;13.00;;;;;34.15;31.21;98517.06;6231167;27;97577;-62
2021/07/29 10:38:54;;;;;;;;;12.40;12.00;;;;;34.32;31.15;98515.59;6233251;28;97018;-61
2021/07/29 10:41:58;;;;;;;;;11.40;11.00;;;;;34.34;31.81;98504.84;6231447;27;97496;-62
2021/07/29 10:45:01;;;;;;;;;12.00;12.00;;;;;34.67;30.79;98515.06;6238598;28;97046;-61
2021/07/29 10:48:05;;;;;;;;;11.00;10.00;;;;;34.67;29.72;98517.84;6239198;27;96635;-61
2021/07/29 10:51:14;;;;;;;;;10.80;9.80;;;;;34.91;30.25;98514.41;6238072;27;97238;-61
2021/07/29 10:54:17;;;;;;;;;11.00;11.00;;;;;34.92;29.65;98520.81;6238387;27;96583;-62
2021/07/29 10:57:21;;;;;;;;;13.50;12.50;;;;;35.04;29.59;98518.47;6238025;27;97021;-61
2021/07/29 11:00:24;;;;;;;;;13.80;13.40;;;;;35.18;29.34;98520.59;6237982;27;96470;-62
2021/07/29 11:03:28;;;;;;;;;12.00;12.00;;;;;35.37;28.80;98513.84;6237925;27;96717;-62
2021/07/29 11:06:36;;;;;;;;;12.00;12.00;;;;;35.39;28.46;98520.66;6236495;27;96623;-61
2021/07/29 11:09:40;;;;;;;;;12.80;11.00;;;;;35.45;29.66;98502.25;6237993;27;96575;-61
2021/07/29 11:12:47;;;;;;;;;13.40;12.40;;;;;35.27;29.32;98506.22;6239906;27;97498;-62
2021/07/29 11:15:51;;;;;;;;;14.20;14.00;;;;;34.89;29.77;98500.03;6237767;27;97483;-62
2021/07/29 11:19:09;;;;;;;;;11.00;11.00;;;;;35.05;29.60;98496.88;6229946;28;97517;-62
2021/07/29 11:22:15;;;;;;;;;14.00;14.00;;;;;35.33;30.45;98494.22;6228411;28;99598;-62
2021/07/29 11:25:18;;;;;;;;;13.40;12.00;;;;;35.67;28.58;98482.72;6234906;27;96855;-62
2021/07/29 11:28:21;;;;;;;;;15.00;14.00;;;;;35.74;28.15;98500.34;6237912;27;96709;-61
2021/07/29 11:31:40;;;;;;;;;11.60;11.00;;;;;35.61;28.77;98485.88;6237599;27;96951;-62
2021/07/29 11:34:43;;;;;;;;;12.00;12.00;;;;;35.76;28.69;98485.94;6236991;27;97398;-62
2021/07/29 11:37:48;;;;;;;;;11.60;11.60;;;;;35.87;27.47;98476.31;6235950;28;96543;-62
2021/07/29 11:41:00;;;;;;;;;11.40;11.00;;;;;35.97;28.50;98475.53;6237271;27;96566;-62
2021/07/29 11:44:04;;;;;;;;;13.00;12.80;;;;;36.08;28.01;98477.53;6237412;27;97090;-62
2021/07/29 11:47:08;;;;;;;;;12.00;12.00;;;;;36.04;26.69;98477.53;6236892;27;96385;-62
2021/07/29 11:50:12;;;;;;;;;10.40;10.40;;;;;36.02;26.47;98477.94;6234041;28;97364;-62
2021/07/29 11:53:18;;;;;;;;;13.00;11.00;;;;;35.90;27.27;98478.34;6236827;28;96478;-63
2021/07/29 11:56:22;;;;;;;;;13.00;12.60;;;;;35.62;27.52;98478.28;6234987;27;97238;-62
2021/07/29 11:59:26;;;;;;;;;11.00;10.00;;;;;35.34;27.16;98478.19;6224552;28;96542;-62
2021/07/29 12:02:29;;;;;;;;;10.00;10.00;;;;;35.45;27.20;98482.63;6235473;28;97732;-61
2021/07/29 12:05:35;;;;;;;;;11.00;11.00;;;;;35.48;27.48;98467.81;6236261;28;97175;-63
2021/07/29 12:08:41;;;;;;;;;9.00;9.00;;;;;35.53;26.57;98481.44;6237317;27;97385;-62
2021/07/29 12:11:45;;;;;;;;;8.00;8.00;;;;;35.60;26.93;98473.06;6237367;28;96625;-61
2021/07/29 12:14:49;;;;;;;;;8.60;7.00;;;;;35.63;26.36;98468.66;6219287;27;98761;-62
2021/07/29 12:17:52;;;;;;;;;8.00;7.50;;;;;35.37;25.85;98469.00;6236092;27;97352;-62
2021/07/29 12:20:57;;;;;;;;;10.00;9.00;;;;;35.07;26.84;98464.47;6232617;27;97880;-63
2021/07/29 12:24:02;;;;;;;;;9.00;9.00;;;;;35.06;27.51;98465.66;6228819;28;96691;-63
2021/07/29 12:27:08;;;;;;;;;9.00;9.00;;;;;35.10;26.30;98451.66;6236935;27;96629;-63
2021/07/29 12:30:33;;;;;;;;;7.00;6.00;;;;;35.23;26.30;98463.38;6237480;28;97419;-63
2021/07/29 12:33:48;;;;;;;;;6.60;6.00;;;;;35.32;26.04;98461.78;6235800;28;97735;-62
2021/07/29 12:36:51;;;;;;;;;7.00;6.60;;;;;35.36;26.05;98464.59;6237197;27;96620;-62
2021/07/29 12:39:56;;;;;;;;;7.80;7.80;;;;;35.31;25.89;98448.16;6236251;28;97391;-62
2021/07/29 12:43:22;;;;;;;;;8.00;7.00;;;;;35.28;26.93;98454.56;6235483;27;97360;-63
2021/07/29 12:46:25;;;;;;;;;7.20;7.00;;;;;35.48;26.89;98456.59;6236801;27;96491;-62
2021/07/29 12:49:39;;;;;;;;;8.50;8.00;;;;;35.69;26.74;98450.25;6237198;27;97607;-62
2021/07/29 12:52:43;;;;;;;;;6.50;6.50;;;;;35.87;26.37;98453.88;6229372;27;96656;-63
2021/07/29 12:55:49;;;;;;;;;7.00;7.00;;;;;35.88;26.34;98454.69;6227031;28;97467;-62
2021/07/29 12:58:53;;;;;;;;;7.00;7.00;;;;;35.87;25.16;98456.69;6237140;27;97162;-63
2021/07/29 13:01:56;;;;;;;;;5.40;5.40;;;;;35.69;24.73;98443.84;6228315;27;97527;-62
2021/07/29 13:05:00;;;;;;;;;7.20;7.20;;;;;35.32;25.29;98441.38;6231188;28;96546;-62
2021/07/29 13:08:03;;;;;;;;;7.00;7.00;;;;;35.19;25.07;98447.31;6223716;28;96679;-62
2021/07/29 13:11:08;;;;;;;;;6.00;6.00;;;;;35.05;25.53;98452.84;6230184;28;96734;-62
2021/07/29 13:14:12;;;;;;;;;7.00;7.00;;;;;35.09;26.48;98453.66;6224213;28;96847;-63
2021/07/29 13:17:16;;;;;;;;;7.50;6.75;;;;;35.20;27.25;98448.13;6221608;28;97192;-62
2021/07/29 13:20:19;;;;;;;;;7.00;5.00;;;;;35.36;26.19;98437.38;6224566;28;96752;-62
2021/07/29 13:23:25;;;;;;;;;6.60;6.60;;;;;35.52;26.09;98431.41;6219651;28;97409;-62
2021/07/29 13:26:31;;;;;;;;;6.80;6.20;;;;;35.38;24.23;98434.19;6223710;27;97054;-62
2021/07/29 13:29:34;;;;;;;;;6.40;5.40;;;;;35.24;26.04;98426.50;6227597;28;96517;-62
2021/07/29 13:32:37;;;;;;;;;5.00;5.00;;;;;35.37;27.37;98433.38;6227109;28;96687;-62
2021/07/29 13:35:41;;;;;;;;;6.00;6.00;;;;;35.42;25.30;98423.78;6235603;28;99564;-63
2021/07/29 13:38:44;;;;;;;;;5.50;5.00;;;;;35.51;25.54;98412.97;6234150;28;97427;-62
2021/07/29 13:41:49;;;;;;;;;5.00;4.00;;;;;35.39;25.23;98413.34;6227276;28;96657;-62
2021/07/29 13:44:57;;;;;;;;;5.00;5.00;;;;;35.37;25.57;98421.34;6234034;27;97487;-63
2021/07/29 13:48:01;;;;;;;;;6.00;6.00;;;;;35.31;26.20;98420.94;6228544;28;96805;-61
2021/07/29 13:51:09;;;;;;;;;7.00;6.00;;;;;35.43;25.92;98412.13;6239067;28;96717;-61
2021/07/29 13:54:12;;;;;;;;;6.50;5.50;;;;;35.54;25.92;98409.34;6222364;28;97068;-62
2021/07/29 13:57:17;;;;;;;;;5.75;5.75;;;;;35.57;25.29;98411.38;6226196;27;96854;-62
2021/07/29 14:00:20;;;;;;;;;5.00;5.00;;;;;35.47;25.61;98412.16;6239916;27;97386;-62
2021/07/29 14:03:23;;;;;;;;;5.00;5.00;;;;;35.43;25.47;98400.94;6234086;28;98080;-61
2021/07/29 14:06:27;;;;;;;;;6.00;5.20;;;;;35.61;26.67;98398.16;6233997;28;99009;-62
2021/07/29 14:09:31;;;;;;;;;6.40;5.60;;;;;35.71;25.55;98394.59;6231239;27;96666;-61
2021/07/29 14:12:36;;;;;;;;;7.00;7.00;;;;;35.69;25.80;98398.97;6235773;28;98502;-62
2021/07/29 14:15:39;;;;;;;;;6.60;6.00;;;;;35.72;25.83;98398.19;6238778;28;97304;-61
2021/07/29 14:18:46;;;;;;;;;5.00;5.00;;;;;35.51;25.08;98388.53;6239927;27;96577;-62